sensor_id;sensor_type;location;lat;lon;timestamp;P1;durP1;ratioP1;P2;durP2;ratioP2
9409;SDS011;4744;52.576;13.568;2022-12-07T00:01:28;12.32;;;9.32;;
9409;SDS011;4744;52.576;13.568;2022-12-07T00:03:57;12.45;;;8.40;;
9409;SDS011;4744;52.576;13.568;2022-12-07T00:06:30;9.45;;;8.07;;
9409;SDS011;4744;52.576;13.568;2022-12-07T00:08:57;8.60;;;7.10;;
9409;SDS011;4744;52.576;13.568;2022-12-07T00:11:26;10.75;;;7.68;;
9409;SDS011;4744;52.576;13.568;2022-12-07T00:13:53;9.35;;;7.93;;
9409;SDS011;4744;52.576;13.568;2022-12-07T00:16:23;9.43;;;7.82;;
9409;SDS011;4744;52.576;13.568;2022-12-07T00:18:51;10.50;;;7.63;;
9409;SDS011;4744;52.576;13.568;2022-12-07T00:21:18;9.27;;;7.70;;
9409;SDS011;4744;52.576;13.568;2022-12-07T00:23:48;8.75;;;7.80;;
9409;SDS011;4744;52.576;13.568;2022-12-07T00:26:17;9.32;;;7.68;;
9409;SDS011;4744;52.576;13.568;2022-12-07T00:28:47;10.27;;;7.50;;
9409;SDS011;4744;52.576;13.568;2022-12-07T00:31:15;9.93;;;7.78;;
9409;SDS011;4744;52.576;13.568;2022-12-07T00:33:43;7.78;;;6.85;;
9409;SDS011;4744;52.576;13.568;2022-12-07T00:36:11;8.10;;;6.75;;
9409;SDS011;4744;52.576;13.568;2022-12-07T00:38:40;8.98;;;7.65;;
9409;SDS011;4744;52.576;13.568;2022-12-07T00:41:09;7.78;;;6.97;;
9409;SDS011;4744;52.576;13.568;2022-12-07T00:43:38;8.23;;;6.93;;
9409;SDS011;4744;52.576;13.568;2022-12-07T00:46:07;9.20;;;6.75;;
9409;SDS011;4744;52.576;13.568;2022-12-07T00:48:35;7.07;;;6.38;;
9409;SDS011;4744;52.576;13.568;2022-12-07T00:51:02;7.72;;;6.35;;
9409;SDS011;4744;52.576;13.568;2022-12-07T00:53:30;8.55;;;6.90;;
9409;SDS011;4744;52.576;13.568;2022-12-07T00:55:57;7.95;;;6.90;;
9409;SDS011;4744;52.576;13.568;2022-12-07T00:58:24;8.20;;;6.63;;
9409;SDS011;4744;52.576;13.568;2022-12-07T01:00:51;6.97;;;6.30;;
9409;SDS011;4744;52.576;13.568;2022-12-07T01:03:19;7.50;;;6.70;;
9409;SDS011;4744;52.576;13.568;2022-12-07T01:05:49;8.00;;;7.20;;
9409;SDS011;4744;52.576;13.568;2022-12-07T01:08:17;8.13;;;6.55;;
9409;SDS011;4744;52.576;13.568;2022-12-07T01:10:45;8.25;;;6.85;;
9409;SDS011;4744;52.576;13.568;2022-12-07T01:13:12;7.95;;;7.10;;
9409;SDS011;4744;52.576;13.568;2022-12-07T01:15:39;8.38;;;7.32;;
9409;SDS011;4744;52.576;13.568;2022-12-07T01:18:06;8.32;;;7.47;;
9409;SDS011;4744;52.576;13.568;2022-12-07T01:20:35;10.63;;;7.00;;
9409;SDS011;4744;52.576;13.568;2022-12-07T01:23:02;7.50;;;6.80;;
9409;SDS011;4744;52.576;13.568;2022-12-07T01:25:29;7.97;;;7.15;;
9409;SDS011;4744;52.576;13.568;2022-12-07T01:27:57;8.38;;;6.97;;
9409;SDS011;4744;52.576;13.568;2022-12-07T01:30:24;7.13;;;6.05;;
9409;SDS011;4744;52.576;13.568;2022-12-07T01:32:51;6.55;;;5.95;;
9409;SDS011;4744;52.576;13.568;2022-12-07T01:35:18;6.53;;;5.93;;
9409;SDS011;4744;52.576;13.568;2022-12-07T01:37:46;7.25;;;5.85;;
9409;SDS011;4744;52.576;13.568;2022-12-07T01:40:13;6.18;;;5.57;;
9409;SDS011;4744;52.576;13.568;2022-12-07T01:42:40;6.70;;;6.00;;
9409;SDS011;4744;52.576;13.568;2022-12-07T01:48:11;7.53;;;6.30;;
9409;SDS011;4744;52.576;13.568;2022-12-07T01:50:41;7.13;;;6.07;;
9409;SDS011;4744;52.576;13.568;2022-12-07T01:53:11;8.57;;;6.65;;
9409;SDS011;4744;52.576;13.568;2022-12-07T01:55:40;6.88;;;5.97;;
9409;SDS011;4744;52.576;13.568;2022-12-07T01:58:10;7.43;;;6.25;;
9409;SDS011;4744;52.576;13.568;2022-12-07T02:00:38;7.32;;;6.63;;
9409;SDS011;4744;52.576;13.568;2022-12-07T02:03:08;6.50;;;5.78;;
9409;SDS011;4744;52.576;13.568;2022-12-07T02:05:40;6.75;;;6.13;;
9409;SDS011;4744;52.576;13.568;2022-12-07T02:08:07;6.97;;;5.88;;
9409;SDS011;4744;52.576;13.568;2022-12-07T02:10:37;6.25;;;5.60;;
9409;SDS011;4744;52.576;13.568;2022-12-07T02:13:04;6.30;;;5.70;;
9409;SDS011;4744;52.576;13.568;2022-12-07T02:15:38;7.07;;;6.05;;
9409;SDS011;4744;52.576;13.568;2022-12-07T02:18:20;6.75;;;5.80;;
9409;SDS011;4744;52.576;13.568;2022-12-07T02:20:57;6.18;;;5.57;;
9409;SDS011;4744;52.576;13.568;2022-12-07T02:23:40;5.57;;;5.03;;
9409;SDS011;4744;52.576;13.568;2022-12-07T02:29:22;5.53;;;5.03;;
9409;SDS011;4744;52.576;13.568;2022-12-07T02:31:54;5.47;;;4.95;;
9409;SDS011;4744;52.576;13.568;2022-12-07T02:34:33;5.90;;;5.25;;
9409;SDS011;4744;52.576;13.568;2022-12-07T02:37:08;5.75;;;5.10;;
9409;SDS011;4744;52.576;13.568;2022-12-07T02:39:42;5.57;;;5.05;;
9409;SDS011;4744;52.576;13.568;2022-12-07T02:42:14;5.13;;;4.63;;
9409;SDS011;4744;52.576;13.568;2022-12-07T02:44:46;5.00;;;4.38;;
9409;SDS011;4744;52.576;13.568;2022-12-07T02:47:14;5.90;;;5.03;;
9409;SDS011;4744;52.576;13.568;2022-12-07T02:49:43;4.63;;;4.22;;
9409;SDS011;4744;52.576;13.568;2022-12-07T02:52:11;5.78;;;5.20;;
9409;SDS011;4744;52.576;13.568;2022-12-07T02:54:38;5.13;;;4.55;;
9409;SDS011;4744;52.576;13.568;2022-12-07T02:57:08;5.03;;;4.53;;
9409;SDS011;4744;52.576;13.568;2022-12-07T03:00:01;7.07;;;5.45;;
9409;SDS011;4744;52.576;13.568;2022-12-07T03:02:35;6.50;;;4.82;;
9409;SDS011;4744;52.576;13.568;2022-12-07T03:05:13;6.00;;;5.40;;
9409;SDS011;4744;52.576;13.568;2022-12-07T03:07:50;5.95;;;5.38;;
9409;SDS011;4744;52.576;13.568;2022-12-07T03:10:22;6.18;;;5.57;;
9409;SDS011;4744;52.576;13.568;2022-12-07T03:12:56;5.70;;;5.10;;
9409;SDS011;4744;52.576;13.568;2022-12-07T03:15:31;6.10;;;4.60;;
9409;SDS011;4744;52.576;13.568;2022-12-07T03:18:00;5.60;;;5.07;;
9409;SDS011;4744;52.576;13.568;2022-12-07T03:20:29;5.70;;;5.18;;
9409;SDS011;4744;52.576;13.568;2022-12-07T03:22:57;6.20;;;5.63;;
9409;SDS011;4744;52.576;13.568;2022-12-07T03:25:25;6.18;;;5.57;;
9409;SDS011;4744;52.576;13.568;2022-12-07T03:27:54;5.95;;;5.35;;
9409;SDS011;4744;52.576;13.568;2022-12-07T03:30:26;6.15;;;5.55;;
9409;SDS011;4744;52.576;13.568;2022-12-07T03:32:58;7.05;;;5.38;;
9409;SDS011;4744;52.576;13.568;2022-12-07T03:35:28;5.85;;;5.32;;
9409;SDS011;4744;52.576;13.568;2022-12-07T03:38:00;6.15;;;5.55;;
9409;SDS011;4744;52.576;13.568;2022-12-07T03:40:35;6.78;;;5.88;;
9409;SDS011;4744;52.576;13.568;2022-12-07T03:43:06;7.18;;;5.90;;
9409;SDS011;4744;52.576;13.568;2022-12-07T03:45:36;6.65;;;5.88;;
9409;SDS011;4744;52.576;13.568;2022-12-07T03:48:08;7.38;;;6.43;;
9409;SDS011;4744;52.576;13.568;2022-12-07T03:50:43;8.90;;;7.53;;
9409;SDS011;4744;52.576;13.568;2022-12-07T03:53:14;8.57;;;6.60;;
9409;SDS011;4744;52.576;13.568;2022-12-07T03:55:44;7.25;;;6.55;;
9409;SDS011;4744;52.576;13.568;2022-12-07T03:58:14;8.77;;;7.22;;
9409;SDS011;4744;52.576;13.568;2022-12-07T04:00:43;10.07;;;7.07;;
9409;SDS011;4744;52.576;13.568;2022-12-07T04:03:12;9.55;;;7.05;;
9409;SDS011;4744;52.576;13.568;2022-12-07T04:05:39;8.27;;;6.40;;
9409;SDS011;4744;52.576;13.568;2022-12-07T04:08:06;7.88;;;6.43;;
9409;SDS011;4744;52.576;13.568;2022-12-07T04:10:33;10.27;;;7.57;;
9409;SDS011;4744;52.576;13.568;2022-12-07T04:13:01;9.30;;;7.13;;
9409;SDS011;4744;52.576;13.568;2022-12-07T04:15:27;9.73;;;7.25;;
9409;SDS011;4744;52.576;13.568;2022-12-07T04:17:54;10.35;;;7.50;;
9409;SDS011;4744;52.576;13.568;2022-12-07T04:20:23;10.48;;;7.72;;
9409;SDS011;4744;52.576;13.568;2022-12-07T04:22:50;11.07;;;8.63;;
9409;SDS011;4744;52.576;13.568;2022-12-07T04:25:17;11.80;;;8.23;;
9409;SDS011;4744;52.576;13.568;2022-12-07T04:27:44;10.18;;;8.73;;
9409;SDS011;4744;52.576;13.568;2022-12-07T04:30:11;9.52;;;8.15;;
9409;SDS011;4744;52.576;13.568;2022-12-07T04:32:38;9.02;;;7.72;;
9409;SDS011;4744;52.576;13.568;2022-12-07T04:35:05;9.57;;;8.35;;
9409;SDS011;4744;52.576;13.568;2022-12-07T04:37:34;10.52;;;8.50;;
9409;SDS011;4744;52.576;13.568;2022-12-07T04:40:01;10.80;;;9.18;;
9409;SDS011;4744;52.576;13.568;2022-12-07T04:42:28;10.98;;;8.85;;
9409;SDS011;4744;52.576;13.568;2022-12-07T04:44:55;14.13;;;9.18;;
9409;SDS011;4744;52.576;13.568;2022-12-07T04:47:22;11.98;;;9.45;;
9409;SDS011;4744;52.576;13.568;2022-12-07T04:49:49;12.23;;;9.27;;
9409;SDS011;4744;52.576;13.568;2022-12-07T04:52:15;13.07;;;9.85;;
9409;SDS011;4744;52.576;13.568;2022-12-07T04:54:44;11.77;;;9.10;;
9409;SDS011;4744;52.576;13.568;2022-12-07T04:57:11;12.68;;;9.80;;
9409;SDS011;4744;52.576;13.568;2022-12-07T04:59:38;12.95;;;9.32;;
9409;SDS011;4744;52.576;13.568;2022-12-07T05:02:04;13.88;;;9.90;;
9409;SDS011;4744;52.576;13.568;2022-12-07T05:04:31;13.35;;;10.18;;
9409;SDS011;4744;52.576;13.568;2022-12-07T05:06:58;14.70;;;10.73;;
9409;SDS011;4744;52.576;13.568;2022-12-07T05:09:25;13.13;;;10.88;;
9409;SDS011;4744;52.576;13.568;2022-12-07T05:11:53;14.73;;;11.30;;
9409;SDS011;4744;52.576;13.568;2022-12-07T05:14:20;11.68;;;9.73;;
9409;SDS011;4744;52.576;13.568;2022-12-07T05:16:48;16.20;;;11.10;;
9409;SDS011;4744;52.576;13.568;2022-12-07T05:19:16;12.18;;;10.02;;
9409;SDS011;4744;52.576;13.568;2022-12-07T05:21:43;15.80;;;11.75;;
9409;SDS011;4744;52.576;13.568;2022-12-07T05:24:11;14.88;;;11.65;;
9409;SDS011;4744;52.576;13.568;2022-12-07T05:26:39;14.55;;;11.45;;
9409;SDS011;4744;52.576;13.568;2022-12-07T05:29:09;17.15;;;12.95;;
9409;SDS011;4744;52.576;13.568;2022-12-07T05:31:37;16.17;;;11.60;;
9409;SDS011;4744;52.576;13.568;2022-12-07T05:34:04;16.92;;;12.02;;
9409;SDS011;4744;52.576;13.568;2022-12-07T05:36:31;16.38;;;11.70;;
9409;SDS011;4744;52.576;13.568;2022-12-07T05:38:58;18.08;;;13.07;;
9409;SDS011;4744;52.576;13.568;2022-12-07T05:41:25;18.17;;;13.02;;
9409;SDS011;4744;52.576;13.568;2022-12-07T05:44:11;18.27;;;13.38;;
9409;SDS011;4744;52.576;13.568;2022-12-07T05:46:38;20.65;;;13.98;;
9409;SDS011;4744;52.576;13.568;2022-12-07T05:49:05;20.55;;;14.13;;
9409;SDS011;4744;52.576;13.568;2022-12-07T05:51:32;22.25;;;14.07;;
9409;SDS011;4744;52.576;13.568;2022-12-07T05:53:59;18.85;;;14.10;;
9409;SDS011;4744;52.576;13.568;2022-12-07T05:56:26;20.80;;;13.95;;
9409;SDS011;4744;52.576;13.568;2022-12-07T05:58:53;20.40;;;13.88;;
9409;SDS011;4744;52.576;13.568;2022-12-07T06:01:35;22.50;;;14.95;;
9409;SDS011;4744;52.576;13.568;2022-12-07T06:04:02;21.85;;;14.65;;
9409;SDS011;4744;52.576;13.568;2022-12-07T06:06:29;21.75;;;15.23;;
9409;SDS011;4744;52.576;13.568;2022-12-07T06:08:56;23.27;;;15.63;;
9409;SDS011;4744;52.576;13.568;2022-12-07T06:11:23;20.13;;;14.40;;
9409;SDS011;4744;52.576;13.568;2022-12-07T06:14:07;22.00;;;15.35;;
9409;SDS011;4744;52.576;13.568;2022-12-07T06:16:35;24.30;;;14.68;;
9409;SDS011;4744;52.576;13.568;2022-12-07T06:19:02;20.75;;;14.70;;
9409;SDS011;4744;52.576;13.568;2022-12-07T06:21:29;25.20;;;15.18;;
9409;SDS011;4744;52.576;13.568;2022-12-07T06:23:56;23.08;;;15.50;;
9409;SDS011;4744;52.576;13.568;2022-12-07T06:26:23;20.95;;;14.88;;
9409;SDS011;4744;52.576;13.568;2022-12-07T06:28:50;18.88;;;14.43;;
9409;SDS011;4744;52.576;13.568;2022-12-07T06:31:17;20.90;;;14.57;;
9409;SDS011;4744;52.576;13.568;2022-12-07T06:33:45;22.80;;;15.73;;
9409;SDS011;4744;52.576;13.568;2022-12-07T06:36:12;23.27;;;15.07;;
9409;SDS011;4744;52.576;13.568;2022-12-07T06:38:39;20.67;;;15.05;;
9409;SDS011;4744;52.576;13.568;2022-12-07T06:41:06;18.27;;;13.38;;
9409;SDS011;4744;52.576;13.568;2022-12-07T06:43:33;18.80;;;13.55;;
9409;SDS011;4744;52.576;13.568;2022-12-07T06:46:00;18.20;;;12.80;;
9409;SDS011;4744;52.576;13.568;2022-12-07T06:48:27;19.83;;;13.57;;
9409;SDS011;4744;52.576;13.568;2022-12-07T06:50:56;17.33;;;12.73;;
9409;SDS011;4744;52.576;13.568;2022-12-07T06:53:22;17.88;;;13.32;;
9409;SDS011;4744;52.576;13.568;2022-12-07T06:55:49;19.92;;;13.65;;
9409;SDS011;4744;52.576;13.568;2022-12-07T06:58:17;18.60;;;13.35;;
9409;SDS011;4744;52.576;13.568;2022-12-07T07:00:44;20.83;;;13.98;;
9409;SDS011;4744;52.576;13.568;2022-12-07T07:03:11;21.13;;;12.88;;
9409;SDS011;4744;52.576;13.568;2022-12-07T07:05:38;20.40;;;13.13;;
9409;SDS011;4744;52.576;13.568;2022-12-07T07:08:06;18.20;;;13.85;;
9409;SDS011;4744;52.576;13.568;2022-12-07T07:10:33;18.05;;;12.70;;
9409;SDS011;4744;52.576;13.568;2022-12-07T07:13:00;19.50;;;13.02;;
9409;SDS011;4744;52.576;13.568;2022-12-07T07:15:27;18.63;;;12.93;;
9409;SDS011;4744;52.576;13.568;2022-12-07T07:17:54;18.70;;;13.60;;
9409;SDS011;4744;52.576;13.568;2022-12-07T07:20:21;18.80;;;13.43;;
9409;SDS011;4744;52.576;13.568;2022-12-07T07:22:48;18.70;;;13.10;;
9409;SDS011;4744;52.576;13.568;2022-12-07T07:25:17;21.40;;;14.18;;
9409;SDS011;4744;52.576;13.568;2022-12-07T07:27:44;19.73;;;13.57;;
9409;SDS011;4744;52.576;13.568;2022-12-07T07:30:11;19.40;;;13.65;;
9409;SDS011;4744;52.576;13.568;2022-12-07T07:32:38;17.95;;;12.68;;
9409;SDS011;4744;52.576;13.568;2022-12-07T07:35:05;19.27;;;14.85;;
9409;SDS011;4744;52.576;13.568;2022-12-07T07:37:33;18.98;;;13.40;;
9409;SDS011;4744;52.576;13.568;2022-12-07T07:40:00;19.15;;;13.23;;
9409;SDS011;4744;52.576;13.568;2022-12-07T07:42:28;20.33;;;13.70;;
9409;SDS011;4744;52.576;13.568;2022-12-07T07:44:55;18.35;;;12.48;;
9409;SDS011;4744;52.576;13.568;2022-12-07T07:47:22;17.17;;;12.15;;
9409;SDS011;4744;52.576;13.568;2022-12-07T07:49:49;18.95;;;12.50;;
9409;SDS011;4744;52.576;13.568;2022-12-07T07:52:16;18.10;;;11.88;;
9409;SDS011;4744;52.576;13.568;2022-12-07T07:54:43;15.38;;;10.90;;
9409;SDS011;4744;52.576;13.568;2022-12-07T07:57:10;15.07;;;10.73;;
9409;SDS011;4744;52.576;13.568;2022-12-07T07:59:38;14.35;;;10.20;;
9409;SDS011;4744;52.576;13.568;2022-12-07T08:02:05;12.15;;;9.70;;
9409;SDS011;4744;52.576;13.568;2022-12-07T08:04:32;11.15;;;8.48;;
9409;SDS011;4744;52.576;13.568;2022-12-07T08:06:59;11.30;;;8.20;;
9409;SDS011;4744;52.576;13.568;2022-12-07T08:09:26;10.57;;;8.05;;
9409;SDS011;4744;52.576;13.568;2022-12-07T08:11:53;10.73;;;7.55;;
9409;SDS011;4744;52.576;13.568;2022-12-07T08:14:19;9.00;;;7.30;;
9409;SDS011;4744;52.576;13.568;2022-12-07T08:16:48;9.13;;;6.97;;
9409;SDS011;4744;52.576;13.568;2022-12-07T08:19:15;8.30;;;6.63;;
9409;SDS011;4744;52.576;13.568;2022-12-07T08:21:42;9.38;;;6.38;;
9409;SDS011;4744;52.576;13.568;2022-12-07T08:24:09;8.38;;;6.07;;
9409;SDS011;4744;52.576;13.568;2022-12-07T08:26:36;6.72;;;5.70;;
9409;SDS011;4744;52.576;13.568;2022-12-07T08:29:03;6.20;;;5.45;;
9409;SDS011;4744;52.576;13.568;2022-12-07T08:31:30;7.50;;;5.65;;
9409;SDS011;4744;52.576;13.568;2022-12-07T08:33:58;7.97;;;5.68;;
9409;SDS011;4744;52.576;13.568;2022-12-07T08:36:25;7.22;;;5.68;;
9409;SDS011;4744;52.576;13.568;2022-12-07T08:38:52;5.75;;;5.15;;
9409;SDS011;4744;52.576;13.568;2022-12-07T08:41:19;5.72;;;4.80;;
9409;SDS011;4744;52.576;13.568;2022-12-07T08:43:45;5.65;;;4.35;;
9409;SDS011;4744;52.576;13.568;2022-12-07T08:46:13;5.03;;;4.53;;
9409;SDS011;4744;52.576;13.568;2022-12-07T08:48:46;6.82;;;4.03;;
9409;SDS011;4744;52.576;13.568;2022-12-07T08:51:17;5.00;;;4.05;;
9409;SDS011;4744;52.576;13.568;2022-12-07T08:53:44;5.00;;;3.90;;
9409;SDS011;4744;52.576;13.568;2022-12-07T08:56:11;6.38;;;4.47;;
9409;SDS011;4744;52.576;13.568;2022-12-07T08:58:38;4.90;;;4.32;;
9409;SDS011;4744;52.576;13.568;2022-12-07T09:01:06;5.10;;;3.70;;
9409;SDS011;4744;52.576;13.568;2022-12-07T09:03:33;4.20;;;3.80;;
9409;SDS011;4744;52.576;13.568;2022-12-07T09:06:00;3.70;;;3.40;;
9409;SDS011;4744;52.576;13.568;2022-12-07T09:08:30;4.28;;;3.45;;
9409;SDS011;4744;52.576;13.568;2022-12-07T09:10:59;3.53;;;3.00;;
9409;SDS011;4744;52.576;13.568;2022-12-07T09:13:26;3.15;;;2.90;;
9409;SDS011;4744;52.576;13.568;2022-12-07T09:15:53;4.22;;;3.08;;
9409;SDS011;4744;52.576;13.568;2022-12-07T09:18:20;2.70;;;2.50;;
9409;SDS011;4744;52.576;13.568;2022-12-07T09:20:47;3.97;;;2.85;;
9409;SDS011;4744;52.576;13.568;2022-12-07T09:23:14;3.28;;;2.97;;
9409;SDS011;4744;52.576;13.568;2022-12-07T09:25:42;4.28;;;2.72;;
9409;SDS011;4744;52.576;13.568;2022-12-07T09:28:10;3.03;;;2.83;;
9409;SDS011;4744;52.576;13.568;2022-12-07T09:30:37;3.10;;;2.80;;
9409;SDS011;4744;52.576;13.568;2022-12-07T09:33:04;2.42;;;2.22;;
9409;SDS011;4744;52.576;13.568;2022-12-07T09:35:32;2.70;;;2.50;;
9409;SDS011;4744;52.576;13.568;2022-12-07T09:37:59;2.53;;;2.33;;
9409;SDS011;4744;52.576;13.568;2022-12-07T09:40:27;2.53;;;2.30;;
9409;SDS011;4744;52.576;13.568;2022-12-07T09:42:55;2.42;;;1.75;;
9409;SDS011;4744;52.576;13.568;2022-12-07T09:45:23;1.83;;;1.73;;
9409;SDS011;4744;52.576;13.568;2022-12-07T09:47:53;1.30;;;1.30;;
9409;SDS011;4744;52.576;13.568;2022-12-07T09:50:20;1.75;;;1.65;;
9409;SDS011;4744;52.576;13.568;2022-12-07T09:52:50;1.95;;;1.80;;
9409;SDS011;4744;52.576;13.568;2022-12-07T09:55:19;1.67;;;1.58;;
9409;SDS011;4744;52.576;13.568;2022-12-07T09:57:51;2.00;;;1.90;;
9409;SDS011;4744;52.576;13.568;2022-12-07T10:00:22;2.88;;;2.25;;
9409;SDS011;4744;52.576;13.568;2022-12-07T10:02:51;1.88;;;1.77;;
9409;SDS011;4744;52.576;13.568;2022-12-07T10:05:22;2.08;;;1.90;;
9409;SDS011;4744;52.576;13.568;2022-12-07T10:07:53;2.17;;;2.08;;
9409;SDS011;4744;52.576;13.568;2022-12-07T10:10:22;3.25;;;1.85;;
9409;SDS011;4744;52.576;13.568;2022-12-07T10:12:56;2.05;;;1.95;;
9409;SDS011;4744;52.576;13.568;2022-12-07T10:18:19;1.50;;;1.40;;
9409;SDS011;4744;52.576;13.568;2022-12-07T10:21:10;2.00;;;1.50;;
9409;SDS011;4744;52.576;13.568;2022-12-07T10:23:39;1.92;;;1.55;;
9409;SDS011;4744;52.576;13.568;2022-12-07T10:26:25;1.92;;;1.60;;
9409;SDS011;4744;52.576;13.568;2022-12-07T10:28:55;2.03;;;1.77;;
9409;SDS011;4744;52.576;13.568;2022-12-07T10:31:25;2.03;;;1.92;;
9409;SDS011;4744;52.576;13.568;2022-12-07T10:33:54;2.05;;;1.85;;
9409;SDS011;4744;52.576;13.568;2022-12-07T10:36:23;2.55;;;1.90;;
9409;SDS011;4744;52.576;13.568;2022-12-07T10:38:52;2.08;;;1.88;;
9409;SDS011;4744;52.576;13.568;2022-12-07T10:41:27;1.90;;;1.75;;
9409;SDS011;4744;52.576;13.568;2022-12-07T10:43:55;1.65;;;1.55;;
9409;SDS011;4744;52.576;13.568;2022-12-07T10:46:37;1.15;;;1.15;;
9409;SDS011;4744;52.576;13.568;2022-12-07T10:49:31;1.58;;;1.40;;
9409;SDS011;4744;52.576;13.568;2022-12-07T10:52:17;2.28;;;1.52;;
9409;SDS011;4744;52.576;13.568;2022-12-07T10:54:57;1.15;;;1.08;;
9409;SDS011;4744;52.576;13.568;2022-12-07T10:57:40;3.30;;;1.50;;
9409;SDS011;4744;52.576;13.568;2022-12-07T11:00:19;2.00;;;1.90;;
9409;SDS011;4744;52.576;13.568;2022-12-07T11:02:54;1.40;;;1.40;;
9409;SDS011;4744;52.576;13.568;2022-12-07T11:05:36;1.70;;;1.60;;
9409;SDS011;4744;52.576;13.568;2022-12-07T11:08:12;1.80;;;1.70;;
9409;SDS011;4744;52.576;13.568;2022-12-07T11:10:49;1.90;;;1.80;;
9409;SDS011;4744;52.576;13.568;2022-12-07T11:13:25;2.00;;;1.80;;
9409;SDS011;4744;52.576;13.568;2022-12-07T11:16:00;2.10;;;1.90;;
9409;SDS011;4744;52.576;13.568;2022-12-07T11:18:35;1.90;;;1.80;;
9409;SDS011;4744;52.576;13.568;2022-12-07T11:21:12;2.00;;;1.80;;
9409;SDS011;4744;52.576;13.568;2022-12-07T11:23:48;2.10;;;1.92;;
9409;SDS011;4744;52.576;13.568;2022-12-07T11:26:23;2.25;;;2.13;;
9409;SDS011;4744;52.576;13.568;2022-12-07T11:29:08;2.28;;;2.03;;
9409;SDS011;4744;52.576;13.568;2022-12-07T11:31:56;2.38;;;2.10;;
9409;SDS011;4744;52.576;13.568;2022-12-07T11:34:34;2.50;;;2.30;;
9409;SDS011;4744;52.576;13.568;2022-12-07T11:37:09;2.65;;;2.25;;
9409;SDS011;4744;52.576;13.568;2022-12-07T11:39:41;2.67;;;2.47;;
9409;SDS011;4744;52.576;13.568;2022-12-07T11:42:13;2.28;;;2.10;;
9409;SDS011;4744;52.576;13.568;2022-12-07T11:44:47;2.17;;;2.08;;
9409;SDS011;4744;52.576;13.568;2022-12-07T11:47:20;2.38;;;2.17;;
9409;SDS011;4744;52.576;13.568;2022-12-07T11:49:54;3.05;;;2.30;;
9409;SDS011;4744;52.576;13.568;2022-12-07T11:52:27;2.53;;;2.13;;
9409;SDS011;4744;52.576;13.568;2022-12-07T11:55:05;2.10;;;2.00;;
9409;SDS011;4744;52.576;13.568;2022-12-07T11:57:45;2.50;;;2.13;;
9409;SDS011;4744;52.576;13.568;2022-12-07T12:00:17;2.63;;;2.42;;
9409;SDS011;4744;52.576;13.568;2022-12-07T12:02:46;3.13;;;2.72;;
9409;SDS011;4744;52.576;13.568;2022-12-07T12:05:18;2.63;;;2.35;;
9409;SDS011;4744;52.576;13.568;2022-12-07T12:07:48;3.95;;;2.60;;
9409;SDS011;4744;52.576;13.568;2022-12-07T12:10:22;3.17;;;2.42;;
9409;SDS011;4744;52.576;13.568;2022-12-07T12:16:03;2.95;;;2.50;;
9409;SDS011;4744;52.576;13.568;2022-12-07T12:18:44;2.97;;;2.30;;
9409;SDS011;4744;52.576;13.568;2022-12-07T12:21:26;3.38;;;2.40;;
9409;SDS011;4744;52.576;13.568;2022-12-07T12:23:56;2.60;;;2.40;;
9409;SDS011;4744;52.576;13.568;2022-12-07T12:26:27;3.28;;;2.60;;
9409;SDS011;4744;52.576;13.568;2022-12-07T12:28:57;3.58;;;2.47;;
9409;SDS011;4744;52.576;13.568;2022-12-07T12:31:34;3.25;;;2.35;;
9409;SDS011;4744;52.576;13.568;2022-12-07T12:34:10;3.17;;;2.65;;
9409;SDS011;4744;52.576;13.568;2022-12-07T12:36:59;3.25;;;2.50;;
9409;SDS011;4744;52.576;13.568;2022-12-07T12:39:27;2.92;;;2.47;;
9409;SDS011;4744;52.576;13.568;2022-12-07T12:42:00;3.25;;;2.38;;
9409;SDS011;4744;52.576;13.568;2022-12-07T12:44:40;4.28;;;2.60;;
9409;SDS011;4744;52.576;13.568;2022-12-07T12:50:25;2.90;;;2.55;;
9409;SDS011;4744;52.576;13.568;2022-12-07T12:52:57;4.28;;;2.75;;
9409;SDS011;4744;52.576;13.568;2022-12-07T12:55:46;3.58;;;2.65;;
9409;SDS011;4744;52.576;13.568;2022-12-07T12:58:41;3.28;;;2.60;;
9409;SDS011;4744;52.576;13.568;2022-12-07T13:04:17;5.07;;;2.30;;
9409;SDS011;4744;52.576;13.568;2022-12-07T13:06:50;4.25;;;2.53;;
9409;SDS011;4744;52.576;13.568;2022-12-07T13:09:19;3.67;;;1.85;;
9409;SDS011;4744;52.576;13.568;2022-12-07T13:11:54;5.32;;;2.30;;
9409;SDS011;4744;52.576;13.568;2022-12-07T13:20:49;4.43;;;2.50;;
9409;SDS011;4744;52.576;13.568;2022-12-07T13:23:24;2.67;;;2.15;;
9409;SDS011;4744;52.576;13.568;2022-12-07T13:28:42;2.63;;;1.92;;
9409;SDS011;4744;52.576;13.568;2022-12-07T13:34:00;3.55;;;1.80;;
9409;SDS011;4744;52.576;13.568;2022-12-07T13:36:29;5.70;;;2.30;;
9409;SDS011;4744;52.576;13.568;2022-12-07T13:39:10;3.25;;;2.00;;
9409;SDS011;4744;52.576;13.568;2022-12-07T13:41:42;3.58;;;2.13;;
9409;SDS011;4744;52.576;13.568;2022-12-07T13:44:12;3.90;;;2.10;;
9409;SDS011;4744;52.576;13.568;2022-12-07T13:46:43;3.88;;;1.95;;
9409;SDS011;4744;52.576;13.568;2022-12-07T13:49:16;4.30;;;2.55;;
9409;SDS011;4744;52.576;13.568;2022-12-07T13:51:46;2.13;;;1.88;;
9409;SDS011;4744;52.576;13.568;2022-12-07T13:54:13;3.80;;;2.55;;
9409;SDS011;4744;52.576;13.568;2022-12-07T13:56:41;3.13;;;2.33;;
9409;SDS011;4744;52.576;13.568;2022-12-07T13:59:13;2.83;;;1.88;;
9409;SDS011;4744;52.576;13.568;2022-12-07T14:01:42;3.97;;;1.80;;
9409;SDS011;4744;52.576;13.568;2022-12-07T14:07:15;3.72;;;1.80;;
9409;SDS011;4744;52.576;13.568;2022-12-07T14:09:53;4.15;;;2.13;;
9409;SDS011;4744;52.576;13.568;2022-12-07T14:12:22;5.15;;;1.90;;
9409;SDS011;4744;52.576;13.568;2022-12-07T14:14:51;5.28;;;1.90;;
9409;SDS011;4744;52.576;13.568;2022-12-07T14:17:20;4.03;;;1.60;;
9409;SDS011;4744;52.576;13.568;2022-12-07T14:19:49;1.77;;;1.60;;
9409;SDS011;4744;52.576;13.568;2022-12-07T14:22:22;2.67;;;1.65;;
9409;SDS011;4744;52.576;13.568;2022-12-07T14:27:50;1.92;;;1.60;;
9409;SDS011;4744;52.576;13.568;2022-12-07T14:30:24;3.30;;;1.25;;
9409;SDS011;4744;52.576;13.568;2022-12-07T14:32:53;3.88;;;1.80;;
9409;SDS011;4744;52.576;13.568;2022-12-07T14:35:23;2.45;;;1.65;;
9409;SDS011;4744;52.576;13.568;2022-12-07T14:37:50;3.03;;;1.80;;
9409;SDS011;4744;52.576;13.568;2022-12-07T14:40:18;3.47;;;1.52;;
9409;SDS011;4744;52.576;13.568;2022-12-07T14:42:46;2.80;;;1.73;;
9409;SDS011;4744;52.576;13.568;2022-12-07T14:45:17;2.75;;;1.65;;
9409;SDS011;4744;52.576;13.568;2022-12-07T14:47:46;4.63;;;1.90;;
9409;SDS011;4744;52.576;13.568;2022-12-07T14:50:14;6.53;;;1.70;;
9409;SDS011;4744;52.576;13.568;2022-12-07T14:52:43;3.20;;;1.73;;
9409;SDS011;4744;52.576;13.568;2022-12-07T14:55:15;3.97;;;2.05;;
9409;SDS011;4744;52.576;13.568;2022-12-07T14:57:48;4.28;;;2.00;;
9409;SDS011;4744;52.576;13.568;2022-12-07T15:00:16;5.47;;;2.00;;
9409;SDS011;4744;52.576;13.568;2022-12-07T15:02:44;5.22;;;2.05;;
9409;SDS011;4744;52.576;13.568;2022-12-07T15:05:13;4.20;;;2.10;;
9409;SDS011;4744;52.576;13.568;2022-12-07T15:07:40;4.22;;;2.08;;
9409;SDS011;4744;52.576;13.568;2022-12-07T15:10:10;3.40;;;2.25;;
9409;SDS011;4744;52.576;13.568;2022-12-07T15:12:43;3.58;;;2.05;;
9409;SDS011;4744;52.576;13.568;2022-12-07T15:15:10;3.15;;;2.00;;
9409;SDS011;4744;52.576;13.568;2022-12-07T15:17:38;5.90;;;1.95;;
9409;SDS011;4744;52.576;13.568;2022-12-07T15:20:05;3.72;;;1.80;;
9409;SDS011;4744;52.576;13.568;2022-12-07T15:22:38;9.30;;;2.30;;
9409;SDS011;4744;52.576;13.568;2022-12-07T15:25:05;6.32;;;2.00;;
9409;SDS011;4744;52.576;13.568;2022-12-07T15:27:33;5.55;;;1.92;;
9409;SDS011;4744;52.576;13.568;2022-12-07T15:30:00;4.00;;;2.20;;
9409;SDS011;4744;52.576;13.568;2022-12-07T15:32:27;2.42;;;1.73;;
9409;SDS011;4744;52.576;13.568;2022-12-07T15:34:54;5.60;;;1.73;;
9409;SDS011;4744;52.576;13.568;2022-12-07T15:37:21;2.70;;;1.55;;
9409;SDS011;4744;52.576;13.568;2022-12-07T15:39:50;4.75;;;1.80;;
9409;SDS011;4744;52.576;13.568;2022-12-07T15:42:17;2.85;;;1.77;;
9409;SDS011;4744;52.576;13.568;2022-12-07T15:44:43;2.38;;;1.60;;
9409;SDS011;4744;52.576;13.568;2022-12-07T15:47:28;2.95;;;1.75;;
9409;SDS011;4744;52.576;13.568;2022-12-07T15:49:54;2.63;;;1.90;;